New Providence, Pennsylvania
Current Conditions -  °F | °C
As of 4:53 AM on Sunday 21 Dec 2014 (Local Time) from KLNS Reporting Station
Broken Clouds Broken Clouds  
Wind Chill: 22°   Ceiling: 3100
Heat Index: 27°   Visibility: 9mi
Dew Point: 22°   Wind: 5mph
Humidity: 81%   Direction: 290°WNW
Pressure: 30.29"   Gusts: NA
Location:  39.93°N, 76.2°W
Report Text: KLNS 210953Z AUTO 29004KT 9SM BKN031 BKN085 M03/M06 A3029 RMK AO2 SLP261 T10281056
Loading
Personal Weather Stations






























Interactive Weather Map New forecast layout! Learn more

10-Day Weather Forecast

Advertisements
Track Severe Weather on mobile